Time;durP1;ratioP1;P1;durP2;ratioP2;P2;SDS_P1;SDS_P2;PMS_P1;PMS_P2;Temp;Humidity;BMP_temperature;BMP_pressure;BME280_temperature;BME280_humidity;BME280_pressure;Samples;Min_cycle;Max_cycle;Signal;HPM_P1;HPM_P2
2022/01/23 00:00:26;;;;;;;13.18;6.55;;;1.70;99.90;;;;;;4958016;29;20023;-90
2022/01/23 00:02:55;;;;;;;11.02;5.80;;;1.80;99.90;;;;;;4953830;29;20043;-87
2022/01/23 00:05:24;;;;;;;12.55;5.60;;;1.80;99.90;;;;;;4959935;29;20030;-86
2022/01/23 00:07:52;;;;;;;11.00;5.93;;;1.80;99.90;;;;;;4975555;28;20016;-86
2022/01/23 00:10:17;;;;;;;11.68;6.63;;;1.80;99.90;;;;;;4952600;29;20038;-88
2022/01/23 00:12:50;;;;;;;15.25;6.47;;;1.80;99.90;;;;;;4949733;29;20202;-89
2022/01/23 00:18:01;;;;;;;13.25;5.88;;;1.80;99.90;;;;;;4950397;29;20035;-90
2022/01/23 00:20:27;;;;;;;10.73;5.55;;;1.90;99.90;;;;;;4943811;29;20082;-91
2022/01/23 00:23:01;;;;;;;11.07;5.65;;;1.90;99.90;;;;;;4930700;29;20028;-89
2022/01/23 00:30:59;;;;;;;11.95;5.32;;;1.90;99.90;;;;;;4948334;29;20050;-92
2022/01/23 00:33:25;;;;;;;8.95;5.38;;;2.00;99.90;;;;;;4931595;29;20035;-91
2022/01/23 00:35:51;;;;;;;12.27;5.43;;;2.00;99.90;;;;;;4948781;29;20052;-90
2022/01/23 00:38:18;;;;;;;7.72;4.63;;;2.00;99.90;;;;;;4936397;29;20024;-90
2022/01/23 00:40:47;;;;;;;10.57;5.07;;;2.10;99.90;;;;;;4947750;29;20027;-89
2022/01/23 00:43:25;;;;;;;10.07;4.57;;;2.10;99.90;;;;;;4932505;29;20073;-88
2022/01/23 00:46:08;;;;;;;12.35;5.22;;;2.10;99.90;;;;;;4936530;29;20096;-91
2022/01/23 00:48:50;;;;;;;12.30;5.45;;;2.20;99.90;;;;;;4955842;29;20020;-91
2022/01/23 00:51:16;;;;;;;10.85;5.10;;;2.20;99.90;;;;;;4956739;29;20038;-90
2022/01/23 00:53:44;;;;;;;7.75;4.38;;;2.20;99.90;;;;;;4934084;23;20115;-86
2022/01/23 00:56:12;;;;;;;9.52;4.85;;;2.20;99.90;;;;;;4948448;29;20035;-86
2022/01/23 00:58:37;;;;;;;12.48;4.93;;;2.20;99.90;;;;;;4956842;29;20038;-84
2022/01/23 01:01:03;;;;;;;11.07;4.72;;;2.20;99.90;;;;;;4959747;29;20087;-84
2022/01/23 01:03:29;;;;;;;10.45;4.70;;;2.20;99.90;;;;;;4954237;29;20031;-84
2022/01/23 01:05:56;;;;;;;9.00;5.18;;;2.20;99.90;;;;;;4951091;29;20047;-84
2022/01/23 01:08:22;;;;;;;14.57;5.78;;;2.20;99.90;;;;;;4960718;29;20027;-82
2022/01/23 01:11:00;;;;;;;15.05;6.10;;;2.10;99.90;;;;;;4976159;28;20031;-83
2022/01/23 01:13:31;;;;;;;9.05;4.72;;;2.10;99.90;;;;;;4960534;29;20043;-82
2022/01/23 01:16:22;;;;;;;13.10;5.85;;;2.10;99.90;;;;;;4960704;29;20028;-83
2022/01/23 01:32:49;;;;;;;9.93;4.35;;;2.40;99.90;;;;;;4959492;29;20020;-84
2022/01/23 01:35:42;;;;;;;10.55;4.90;;;2.40;99.90;;;;;;4943788;29;20036;-83
2022/01/23 01:38:03;;;;;;;9.18;4.53;;;2.50;99.90;;;;;;4959184;29;20031;-83
2022/01/23 01:40:30;;;;;;;7.75;4.07;;;2.60;99.90;;;;;;4943057;29;20075;-84
2022/01/23 01:42:57;;;;;;;10.73;4.25;;;2.60;99.90;;;;;;4958981;29;20087;-82
2022/01/23 01:45:29;;;;;;;9.00;4.13;;;2.70;99.90;;;;;;4958933;29;20095;-84
2022/01/23 01:48:02;;;;;;;7.65;3.85;;;2.70;99.90;;;;;;4941418;29;20058;-84
2022/01/23 01:50:30;;;;;;;8.00;4.18;;;2.80;99.90;;;;;;4950569;29;20511;-84
2022/01/23 01:53:00;;;;;;;9.55;4.47;;;2.80;99.90;;;;;;4948652;29;20245;-85
2022/01/23 01:55:30;;;;;;;6.35;4.00;;;2.80;99.90;;;;;;4948489;29;20024;-84
2022/01/23 01:58:04;;;;;;;12.57;4.53;;;2.90;99.90;;;;;;4946031;29;20098;-84
2022/01/23 02:00:54;;;;;;;8.73;4.30;;;2.90;99.90;;;;;;4947609;29;20024;-84
2022/01/23 02:08:17;;;;;;;11.07;5.07;;;3.00;99.90;;;;;;4953436;29;20031;-84
2022/01/23 02:09:05;;;;;;;7.67;4.07;;;3.00;99.90;;;;;;4955999;29;20046;-83
2022/01/23 02:55:15;;;;;;;14.73;5.93;;;3.20;99.90;;;;;;4959759;29;20048;-86
2022/01/23 03:00:16;;;;;;;16.38;5.32;;;3.30;99.90;;;;;;4952343;29;20157;-85
2022/01/23 03:03:04;;;;;;;10.27;5.18;;;3.30;99.90;;;;;;4951123;29;20067;-85
2022/01/23 03:14:13;;;;;;;12.68;5.60;;;3.30;99.90;;;;;;4954235;29;20042;-86
2022/01/23 03:25:09;;;;;;;11.18;5.72;;;3.20;99.90;;;;;;4949367;29;20031;-85
2022/01/23 03:32:46;;;;;;;14.15;6.60;;;3.20;99.90;;;;;;4951017;29;20027;-85
2022/01/23 03:35:13;;;;;;;13.65;6.55;;;3.20;99.90;;;;;;4959849;29;20055;-85
2022/01/23 03:37:38;;;;;;;12.30;6.10;;;3.30;99.90;;;;;;4961922;29;20096;-85
2022/01/23 03:40:06;;;;;;;13.70;6.35;;;3.20;99.90;;;;;;4961602;29;20044;-83
2022/01/23 03:42:35;;;;;;;12.00;6.65;;;3.20;99.90;;;;;;4961382;29;20043;-84
2022/01/23 03:50:45;;;;;;;15.02;6.45;;;3.10;99.90;;;;;;4960779;29;20051;-83
2022/01/23 03:53:13;;;;;;;11.68;6.20;;;3.10;99.90;;;;;;4945337;29;20035;-84
2022/01/23 03:55:40;;;;;;;13.98;6.45;;;3.10;99.90;;;;;;4960735;29;20044;-84
2022/01/23 03:58:06;;;;;;;13.98;6.03;;;3.10;99.90;;;;;;4961063;29;20042;-84
2022/01/23 04:00:33;;;;;;;19.42;7.65;;;3.00;99.90;;;;;;4961278;29;20032;-84
2022/01/23 04:03:01;;;;;;;14.73;6.35;;;3.00;99.90;;;;;;4961202;29;20047;-83
2022/01/23 04:05:28;;;;;;;15.00;6.82;;;3.00;99.90;;;;;;4961241;29;20023;-83
2022/01/23 04:07:54;;;;;;;16.40;7.07;;;2.90;99.90;;;;;;4961345;29;20024;-84
2022/01/23 04:10:22;;;;;;;16.38;7.03;;;2.90;99.90;;;;;;4961284;29;20091;-83
2022/01/23 04:15:37;;;;;;;10.90;6.97;;;2.80;99.90;;;;;;4961038;29;20035;-83
2022/01/23 05:07:01;;;;;;;7.45;3.20;;;3.40;99.90;;;;;;4961224;29;20038;-85
2022/01/23 05:09:47;;;;;;;4.85;3.50;;;3.50;99.90;;;;;;4961036;29;20137;-82
2022/01/23 05:12:17;;;;;;;5.35;3.13;;;3.50;99.90;;;;;;4960334;29;20056;-83
2022/01/23 05:14:46;;;;;;;5.50;3.10;;;3.50;99.90;;;;;;4960182;29;20032;-84
2022/01/23 05:17:15;;;;;;;8.95;4.65;;;3.50;99.90;;;;;;4960084;29;20979;-83
2022/01/23 05:19:41;;;;;;;6.15;3.67;;;3.50;99.90;;;;;;4959940;29;20055;-84
2022/01/23 05:22:23;;;;;;;6.18;4.05;;;3.50;99.90;;;;;;4959883;29;20031;-84
2022/01/23 05:24:54;;;;;;;6.57;3.45;;;3.50;99.90;;;;;;4944031;29;20048;-83
2022/01/23 05:27:27;;;;;;;6.05;4.25;;;3.50;99.90;;;;;;4943990;29;20031;-83
2022/01/23 05:29:54;;;;;;;7.60;3.70;;;3.40;99.90;;;;;;4975035;28;20057;-84
2022/01/23 05:32:21;;;;;;;6.47;3.67;;;3.40;99.90;;;;;;4954502;29;20032;-84
2022/01/23 05:34:48;;;;;;;5.55;3.28;;;3.40;99.90;;;;;;4949678;29;20039;-86
2022/01/23 05:37:20;;;;;;;5.20;3.03;;;3.40;99.90;;;;;;4955864;29;20032;-85
2022/01/23 05:39:47;;;;;;;5.10;3.25;;;3.40;99.90;;;;;;4954313;29;20032;-86
2022/01/23 05:42:13;;;;;;;5.72;3.50;;;3.40;99.90;;;;;;4958350;29;20031;-86
2022/01/23 05:44:41;;;;;;;4.88;2.95;;;3.40;99.90;;;;;;4939593;29;20039;-87
2022/01/23 05:47:10;;;;;;;8.73;3.33;;;3.40;99.90;;;;;;4936429;29;20034;-86
2022/01/23 05:50:04;;;;;;;5.90;3.03;;;3.40;99.90;;;;;;4951123;29;20042;-85
2022/01/23 05:52:53;;;;;;;4.97;2.80;;;3.40;99.90;;;;;;4952384;29;20034;-84
2022/01/23 05:55:45;;;;;;;4.63;2.90;;;3.40;99.90;;;;;;4955385;29;20079;-85
2022/01/23 05:58:34;;;;;;;5.00;2.92;;;3.40;99.90;;;;;;4956464;29;20032;-85
2022/01/23 06:01:00;;;;;;;5.80;3.60;;;3.40;99.90;;;;;;4958122;29;20027;-84
2022/01/23 06:03:26;;;;;;;7.43;3.40;;;3.40;99.90;;;;;;4959219;29;20016;-85
2022/01/23 06:06:03;;;;;;;5.25;3.17;;;3.40;99.90;;;;;;4944226;29;20205;-86
2022/01/23 06:08:29;;;;;;;6.75;3.63;;;3.40;99.90;;;;;;4958191;29;20054;-83
2022/01/23 06:10:57;;;;;;;4.78;2.85;;;3.40;99.90;;;;;;4956500;29;20024;-84
2022/01/23 06:13:31;;;;;;;5.38;3.50;;;3.50;99.90;;;;;;4958114;29;20031;-84
2022/01/23 06:15:57;;;;;;;5.68;3.30;;;3.50;99.90;;;;;;4958827;29;20030;-83
2022/01/23 06:18:24;;;;;;;6.45;3.60;;;3.50;99.90;;;;;;4959299;29;20019;-83
2022/01/23 06:21:08;;;;;;;5.53;3.50;;;3.50;99.90;;;;;;4959940;29;20093;-83
2022/01/23 06:24:09;;;;;;;6.88;4.20;;;3.60;99.90;;;;;;4959218;29;20032;-85
2022/01/23 06:26:57;;;;;;;7.05;4.43;;;3.50;99.90;;;;;;4959831;29;20042;-83
2022/01/23 06:29:27;;;;;;;6.75;4.47;;;3.60;99.90;;;;;;4959245;29;20092;-82
2022/01/23 06:31:58;;;;;;;8.20;4.63;;;3.60;99.90;;;;;;4958955;29;20035;-83
2022/01/23 06:34:26;;;;;;;8.23;4.82;;;3.50;99.90;;;;;;4959151;29;20035;-83
2022/01/23 06:36:52;;;;;;;9.35;5.57;;;3.50;99.90;;;;;;4959767;29;20016;-82
2022/01/23 06:39:21;;;;;;;8.13;5.60;;;3.50;99.90;;;;;;4959011;29;20030;-82
2022/01/23 06:41:49;;;;;;;8.70;5.78;;;3.40;99.90;;;;;;4959102;29;20044;-84
2022/01/23 06:44:47;;;;;;;10.15;6.07;;;3.40;99.90;;;;;;4959042;29;20052;-83
2022/01/23 06:47:14;;;;;;;10.05;6.20;;;3.40;99.90;;;;;;4959193;29;20015;-83
2022/01/23 06:49:41;;;;;;;12.85;7.18;;;3.40;99.90;;;;;;4959094;29;20019;-83
2022/01/23 06:52:08;;;;;;;12.32;7.43;;;3.30;99.90;;;;;;4958999;29;20012;-83
2022/01/23 06:54:39;;;;;;;10.68;7.00;;;3.30;99.90;;;;;;4977993;23;20026;-93
2022/01/23 06:57:06;;;;;;;12.50;7.53;;;3.30;99.90;;;;;;4953462;29;20028;-87
2022/01/23 06:59:33;;;;;;;11.93;6.78;;;3.30;99.90;;;;;;4952656;29;20012;-90
2022/01/23 07:02:15;;;;;;;12.30;6.95;;;3.30;99.90;;;;;;4934327;29;20623;-88
2022/01/23 07:04:57;;;;;;;11.38;6.82;;;3.30;99.90;;;;;;4944852;29;20066;-87
2022/01/23 07:07:42;;;;;;;;;;;3.30;99.90;;;;;;4936031;29;20058;-86
2022/01/23 07:10:21;;;;;;;10.55;6.40;;;3.30;99.90;;;;;;4945986;29;20374;-88
2022/01/23 07:13:16;;;;;;;11.52;6.43;;;3.30;99.90;;;;;;4943631;29;20048;-87
2022/01/23 07:16:02;;;;;;;11.02;6.47;;;3.30;99.90;;;;;;4946740;29;20043;-88
2022/01/23 07:18:55;;;;;;;10.93;6.20;;;3.40;99.90;;;;;;4946161;29;20047;-87
2022/01/23 07:21:23;;;;;;;10.90;6.22;;;3.40;99.90;;;;;;4928923;29;20031;-87
2022/01/23 07:23:50;;;;;;;10.70;5.80;;;3.40;99.90;;;;;;4951606;29;20499;-87
2022/01/23 07:26:20;;;;;;;10.20;5.72;;;3.40;99.90;;;;;;4959712;29;20091;-87
2022/01/23 07:28:52;;;;;;;10.70;5.90;;;3.40;99.90;;;;;;4970881;29;20039;-87
2022/01/23 07:31:43;;;;;;;10.52;6.43;;;3.40;99.90;;;;;;4955493;29;20030;-88
2022/01/23 07:34:10;;;;;;;11.07;6.70;;;3.40;99.90;;;;;;4956487;29;20072;-87
2022/01/23 07:36:37;;;;;;;11.35;6.47;;;3.40;99.90;;;;;;4955839;29;20039;-87
2022/01/23 07:39:17;;;;;;;11.35;6.85;;;3.40;99.90;;;;;;4956514;29;20024;-88
2022/01/23 07:41:48;;;;;;;9.88;6.28;;;3.40;99.90;;;;;;4953620;29;20066;-86
2022/01/23 07:44:21;;;;;;;12.00;7.32;;;3.40;99.90;;;;;;4951079;29;20031;-87
2022/01/23 07:47:06;;;;;;;14.38;7.80;;;3.50;99.90;;;;;;4950432;29;20078;-86
2022/01/23 07:49:38;;;;;;;14.07;7.25;;;3.40;99.90;;;;;;4952251;29;20032;-87
2022/01/23 07:52:18;;;;;;;12.57;8.10;;;3.40;99.90;;;;;;4966751;29;20068;-88
2022/01/23 07:54:57;;;;;;;15.02;9.40;;;3.30;99.90;;;;;;4951667;29;20059;-88
2022/01/23 07:57:31;;;;;;;;;;;3.20;99.90;;;;;;4948239;29;20127;-89
2022/01/23 08:00:33;;;;;;;18.23;9.50;;;3.20;99.90;;;;;;4916265;29;20375;-89
2022/01/23 08:03:03;;;;;;;17.70;9.65;;;3.20;99.90;;;;;;4941325;29;20054;-89
2022/01/23 08:05:55;;;;;;;18.48;9.65;;;3.20;99.90;;;;;;4945302;29;20059;-86
2022/01/23 08:08:41;;;;;;;19.98;10.95;;;3.20;99.90;;;;;;4967344;28;20048;-88
2022/01/23 08:11:15;;;;;;;20.42;10.30;;;3.20;99.90;;;;;;4963224;29;20042;-86
2022/01/23 08:13:41;;;;;;;18.95;9.93;;;3.20;99.90;;;;;;4948978;29;20055;-88
2022/01/23 08:16:07;;;;;;;21.73;10.85;;;3.20;99.90;;;;;;4949808;29;20020;-89
2022/01/23 08:18:33;;;;;;;19.85;9.80;;;3.30;99.90;;;;;;4949061;29;20063;-86
2022/01/23 08:20:59;;;;;;;21.80;11.45;;;3.30;99.90;;;;;;4948632;29;20134;-84
2022/01/23 08:23:25;;;;;;;21.13;11.68;;;3.30;99.90;;;;;;4936161;29;20032;-85
2022/01/23 08:25:50;;;;;;;21.58;11.40;;;3.30;99.90;;;;;;4923369;29;20008;-85
2022/01/23 08:28:17;;;;;;;21.98;10.85;;;3.20;99.90;;;;;;4953319;29;20047;-85
2022/01/23 08:30:43;;;;;;;17.60;10.45;;;3.30;99.90;;;;;;4956000;29;20028;-88
2022/01/23 08:33:09;;;;;;;20.60;10.55;;;3.30;99.90;;;;;;4947137;29;20031;-89
2022/01/23 08:35:34;;;;;;;25.58;11.88;;;3.30;99.90;;;;;;4953788;29;20046;-89
2022/01/23 08:38:00;;;;;;;19.15;10.73;;;3.20;99.90;;;;;;4955224;29;20028;-87
2022/01/23 08:43:13;;;;;;;20.90;11.00;;;3.20;99.90;;;;;;4958132;29;20082;-86
2022/01/23 08:45:39;;;;;;;21.38;10.82;;;3.20;99.90;;;;;;4956630;28;20024;-84
2022/01/23 08:48:06;;;;;;;23.17;12.10;;;3.20;99.90;;;;;;4979442;28;20030;-85
2022/01/23 08:50:32;;;;;;;21.05;11.93;;;3.10;99.90;;;;;;4978420;28;20034;-84
2022/01/23 08:52:58;;;;;;;22.27;10.80;;;3.10;99.90;;;;;;4960502;28;20031;-86
2022/01/23 08:55:24;;;;;;;25.77;11.50;;;3.10;99.90;;;;;;4958502;29;20040;-85
2022/01/23 08:57:50;;;;;;;20.98;10.63;;;3.00;99.90;;;;;;4959767;29;20032;-86
2022/01/23 09:00:18;;;;;;;21.50;10.68;;;3.00;99.90;;;;;;4959801;29;20028;-85
2022/01/23 09:02:44;;;;;;;21.58;10.93;;;3.10;99.90;;;;;;4958671;29;20099;-89
2022/01/23 09:05:10;;;;;;;23.90;12.07;;;3.00;99.90;;;;;;4959929;29;20027;-88
2022/01/23 09:07:35;;;;;;;21.63;10.77;;;3.00;99.90;;;;;;4949176;29;20032;-89
2022/01/23 09:10:03;;;;;;;23.65;11.02;;;3.10;99.90;;;;;;4950256;29;20023;-86
2022/01/23 09:15:06;;;;;;;25.02;10.95;;;3.10;99.90;;;;;;4951324;29;20055;-86
2022/01/23 09:17:32;;;;;;;19.00;9.73;;;3.10;99.90;;;;;;4952779;29;20047;-86
2022/01/23 09:19:59;;;;;;;20.52;10.98;;;3.10;99.90;;;;;;4946905;29;20046;-85
2022/01/23 09:22:28;;;;;;;24.92;11.30;;;3.10;99.90;;;;;;4951017;29;20043;-87
2022/01/23 09:25:04;;;;;;;18.25;10.15;;;3.20;99.90;;;;;;4952254;29;20099;-89
2022/01/23 09:27:51;;;;;;;22.95;11.85;;;3.20;99.90;;;;;;4978508;23;20091;-88
2022/01/23 09:30:34;;;;;;;18.98;10.93;;;3.20;99.90;;;;;;4956018;29;20027;-86
2022/01/23 09:33:03;;;;;;;20.77;10.77;;;3.10;99.90;;;;;;4957204;29;20027;-88
2022/01/23 09:35:28;;;;;;;21.23;10.95;;;3.10;99.90;;;;;;4957699;29;20083;-87
2022/01/23 09:37:54;;;;;;;24.65;11.32;;;3.10;99.90;;;;;;4951592;29;20039;-88
2022/01/23 09:40:20;;;;;;;23.67;11.90;;;3.20;99.90;;;;;;4946548;29;20094;-89
2022/01/23 09:42:54;;;;;;;19.52;10.82;;;3.20;99.90;;;;;;4948571;29;20047;-88
2022/01/23 09:45:21;;;;;;;19.88;10.27;;;3.20;99.90;;;;;;4947096;29;20051;-89
2022/01/23 09:47:46;;;;;;;20.15;10.85;;;3.30;99.90;;;;;;4949776;29;20020;-88
2022/01/23 09:50:15;;;;;;;18.75;10.07;;;3.40;99.90;;;;;;4950470;29;20067;-88
2022/01/23 09:52:42;;;;;;;21.13;9.88;;;3.40;99.90;;;;;;4946526;29;20083;-88
2022/01/23 09:55:11;;;;;;;21.20;10.15;;;3.40;99.90;;;;;;4948133;29;20109;-88
2022/01/23 09:57:47;;;;;;;18.77;9.93;;;3.50;99.90;;;;;;4956611;29;20040;-86
2022/01/23 10:00:24;;;;;;;18.33;9.73;;;3.40;99.90;;;;;;4958601;29;20042;-89
2022/01/23 10:02:50;;;;;;;20.05;10.43;;;3.40;99.90;;;;;;4958805;29;20035;-87
2022/01/23 10:05:17;;;;;;;22.75;11.25;;;3.40;99.90;;;;;;4957935;29;20031;-86
2022/01/23 10:07:44;;;;;;;19.10;10.75;;;3.50;99.90;;;;;;4957709;29;20126;-87
2022/01/23 10:10:26;;;;;;;22.65;12.20;;;3.40;99.90;;;;;;4958777;29;20023;-86
2022/01/23 10:12:56;;;;;;;22.33;11.35;;;3.50;99.90;;;;;;4958569;29;20016;-85
2022/01/23 10:15:27;;;;;;;23.98;12.13;;;3.50;99.90;;;;;;4957634;29;20024;-86
2022/01/23 10:17:54;;;;;;;23.00;12.15;;;3.60;99.90;;;;;;4958917;29;20035;-85
2022/01/23 10:20:21;;;;;;;21.70;11.65;;;3.70;99.90;;;;;;4956394;29;20035;-89
2022/01/23 10:22:50;;;;;;;24.45;12.30;;;3.70;99.90;;;;;;4954700;29;20028;-89
2022/01/23 10:25:19;;;;;;;22.83;12.27;;;3.80;99.90;;;;;;4951451;29;20044;-86
2022/01/23 10:28:13;;;;;;;28.23;12.07;;;3.90;99.90;;;;;;4948628;29;20134;-89
2022/01/23 10:30:44;;;;;;;20.00;11.23;;;3.90;99.90;;;;;;4952690;29;20202;-86
2022/01/23 10:33:14;;;;;;;22.17;11.45;;;4.00;99.90;;;;;;4958350;29;20063;-86
2022/01/23 10:36:35;;;;;;;22.98;12.40;;;4.00;99.90;;;;;;4957411;29;20031;-85
2022/01/23 10:39:04;;;;;;;24.40;12.93;;;4.00;99.90;;;;;;4937906;29;20028;-86
2022/01/23 10:42:01;;;;;;;24.20;12.93;;;4.10;99.90;;;;;;4957537;29;20024;-91
2022/01/23 10:49:59;;;;;;;24.52;13.15;;;4.20;99.90;;;;;;5924386;23;20983;-88
2022/01/23 10:52:26;;;;;;;25.75;13.88;;;4.20;99.90;;;;;;4960041;29;20044;-90
2022/01/23 10:54:52;;;;;;;24.35;13.43;;;4.20;99.90;;;;;;4960680;29;20055;-89
2022/01/23 10:57:18;;;;;;;25.80;13.30;;;4.20;99.90;;;;;;4961821;29;20047;-93
2022/01/23 10:59:52;;;;;;;27.58;12.45;;;4.20;99.90;;;;;;5234639;23;20103;-93
2022/01/23 11:02:25;;;;;;;25.25;12.90;;;4.30;99.90;;;;;;4960009;29;20020;-90
2022/01/23 11:04:58;;;;;;;29.30;14.73;;;4.30;99.90;;;;;;4977361;28;20039;-92
2022/01/23 11:07:26;;;;;;;;;;;4.30;99.90;;;;;;4946367;29;20046;-88
2022/01/23 11:10:01;;;;;;;27.20;13.05;;;4.30;99.90;;;;;;4961615;29;19909;-87
2022/01/23 11:20:58;;;;;;;23.08;11.80;;;4.60;99.90;;;;;;5196380;23;20062;-92
2022/01/23 11:23:32;;;;;;;23.48;11.15;;;4.60;99.90;;;;;;5140777;23;20063;-92
2022/01/23 11:31:43;;;;;;;19.50;11.43;;;4.80;99.90;;;;;;5745787;23;20070;-92
2022/01/23 11:36:46;;;;;;;16.02;8.98;;;4.90;99.90;;;;;;822250;26;20295;-92
2022/01/23 11:39:28;;;;;;;17.58;7.25;;;4.90;99.90;;;;;;5171676;23;20048;-92
2022/01/23 11:55:47;;;;;;;11.70;5.88;;;5.40;99.90;;;;;;5188400;23;20043;-91
2022/01/23 11:58:35;;;;;;;9.68;5.80;;;5.40;99.90;;;;;;4993082;28;20106;-92
2022/01/23 12:01:25;;;;;;;10.13;6.18;;;5.40;99.90;;;;;;4997727;28;20050;-91
2022/01/23 12:04:11;;;;;;;10.18;5.75;;;5.40;99.90;;;;;;4977493;28;20049;-91
2022/01/23 12:07:04;;;;;;;9.25;5.53;;;5.40;99.90;;;;;;4992571;28;20109;-91
2022/01/23 12:10:04;;;;;;;9.73;5.43;;;5.40;99.90;;;;;;4992489;28;20043;-91
2022/01/23 12:12:44;;;;;;;9.38;5.70;;;5.40;99.90;;;;;;4991557;28;20058;-91
2022/01/23 12:18:10;;;;;;;9.75;5.80;;;5.50;99.90;;;;;;5005014;23;20063;-90
2022/01/23 12:20:38;;;;;;;13.05;5.88;;;5.50;99.90;;;;;;4960104;29;20027;-94
2022/01/23 12:25:51;;;;;;;11.48;6.10;;;5.50;99.90;;;;;;5036099;23;20102;-94
2022/01/23 12:39:27;;;;;;;11.45;5.90;;;5.60;99.90;;;;;;1342523;27;20031;-92
2022/01/23 12:41:59;;;;;;;9.10;6.05;;;5.60;99.90;;;;;;4961195;29;20012;-92
2022/01/23 12:44:28;;;;;;;8.43;5.18;;;5.60;99.90;;;;;;5021694;23;20162;-93
2022/01/23 12:52:31;;;;;;;11.68;5.85;;;5.70;99.90;;;;;;4048598;23;20044;-95
2022/01/23 12:55:18;;;;;;;12.07;6.35;;;5.70;99.90;;;;;;4968657;23;20035;-89
2022/01/23 12:57:45;;;;;;;12.55;6.57;;;5.60;99.90;;;;;;4948427;29;20031;-90
2022/01/23 13:00:18;;;;;;;10.48;6.53;;;5.60;99.90;;;;;;4950506;29;20087;-90
2022/01/23 13:02:47;;;;;;;10.15;6.07;;;5.70;99.90;;;;;;4952671;29;20498;-87
2022/01/23 13:05:16;;;;;;;14.82;5.97;;;5.70;99.90;;;;;;4950935;29;20039;-88
2022/01/23 13:13:16;;;;;;;9.93;5.55;;;5.60;99.90;;;;;;4969378;28;20439;-85
2022/01/23 13:15:58;;;;;;;11.10;6.43;;;5.50;99.90;;;;;;4964228;28;20122;-85
2022/01/23 13:32:04;;;;;;;11.15;6.80;;;5.60;99.90;;;;;;4962737;29;20075;-86
2022/01/23 13:34:36;;;;;;;11.85;6.00;;;5.60;99.90;;;;;;4965506;28;20054;-87
2022/01/23 13:37:16;;;;;;;12.15;5.95;;;5.60;99.90;;;;;;4974356;28;20066;-87
2022/01/23 13:39:58;;;;;;;13.75;6.95;;;5.60;99.90;;;;;;4975836;29;20023;-88
2022/01/23 14:04:28;;;;;;;11.68;5.90;;;5.50;99.90;;;;;;4961314;29;20094;-87
2022/01/23 14:06:55;;;;;;;10.15;5.70;;;5.40;99.90;;;;;;4959897;28;20030;-87
2022/01/23 14:09:24;;;;;;;8.82;5.07;;;5.50;99.90;;;;;;4963358;28;20027;-86
2022/01/23 14:11:50;;;;;;;9.00;5.45;;;5.50;99.90;;;;;;4959735;29;20372;-91
2022/01/23 14:14:22;;;;;;;10.55;5.88;;;5.50;99.90;;;;;;4961698;28;20035;-87
2022/01/23 14:16:53;;;;;;;11.32;5.70;;;5.50;99.90;;;;;;4963329;28;20563;-88
2022/01/23 14:19:23;;;;;;;13.48;5.43;;;5.50;99.90;;;;;;4963098;29;20023;-88
2022/01/23 14:21:52;;;;;;;8.18;4.80;;;5.50;99.90;;;;;;4965707;29;20039;-88
2022/01/23 14:24:28;;;;;;;11.50;5.47;;;5.50;99.90;;;;;;4971669;28;20028;-90
2022/01/23 14:27:09;;;;;;;8.00;4.80;;;5.60;99.90;;;;;;4974229;28;20050;-90
2022/01/23 14:29:49;;;;;;;7.53;4.70;;;5.60;99.90;;;;;;4968723;29;20151;-92
2022/01/23 14:32:24;;;;;;;8.98;5.00;;;5.60;99.90;;;;;;4969581;29;20039;-87
2022/01/23 14:35:07;;;;;;;8.23;4.65;;;5.60;99.90;;;;;;4966440;28;20118;-87
2022/01/23 14:37:34;;;;;;;10.15;4.63;;;5.60;99.90;;;;;;4965948;29;20464;-90
2022/01/23 14:40:27;;;;;;;7.35;4.22;;;5.60;99.90;;;;;;4969866;29;20031;-88
2022/01/23 14:43:10;;;;;;;7.38;4.30;;;5.60;99.90;;;;;;4969383;29;20539;-90
2022/01/23 14:45:44;;;;;;;8.65;4.53;;;5.60;99.90;;;;;;4970939;28;20035;-88
2022/01/23 14:48:11;;;;;;;7.60;3.97;;;5.60;99.90;;;;;;4973332;28;20039;-89
2022/01/23 14:50:40;;;;;;;7.95;4.50;;;5.60;99.90;;;;;;4966432;29;20035;-89
2022/01/23 14:53:09;;;;;;;7.45;4.68;;;5.60;99.90;;;;;;4966664;29;20023;-91
2022/01/23 14:55:35;;;;;;;7.55;4.30;;;5.60;99.90;;;;;;4965844;28;20037;-91
2022/01/23 14:58:04;;;;;;;7.95;4.68;;;5.50;99.90;;;;;;4949404;29;20027;-92
2022/01/23 15:00:32;;;;;;;5.85;3.97;;;5.50;99.90;;;;;;4957439;29;20091;-91
2022/01/23 15:03:01;;;;;;;8.77;4.90;;;5.50;99.90;;;;;;4960922;29;20119;-90
2022/01/23 15:05:30;;;;;;;6.93;4.28;;;5.40;99.90;;;;;;4964111;29;20023;-91
2022/01/23 15:07:58;;;;;;;7.97;4.60;;;5.30;99.90;;;;;;4965511;29;20019;-90
2022/01/23 15:10:24;;;;;;;8.50;4.90;;;5.30;99.90;;;;;;4969829;29;20071;-92
2022/01/23 15:12:54;;;;;;;7.82;4.68;;;5.30;99.90;;;;;;4956014;28;20031;-89
2022/01/23 15:15:28;;;;;;;7.70;4.50;;;5.30;99.90;;;;;;4957890;28;20091;-92
2022/01/23 15:23:31;;;;;;;9.07;5.07;;;5.30;99.90;;;;;;5008377;23;20038;-91
2022/01/23 15:26:00;;;;;;;9.30;5.30;;;5.30;99.90;;;;;;4970638;28;20024;-90
2022/01/23 15:28:26;;;;;;;7.57;5.15;;;5.30;99.90;;;;;;4953720;28;20024;-91
2022/01/23 15:30:52;;;;;;;8.15;4.97;;;5.30;99.90;;;;;;4950798;28;20046;-90
2022/01/23 15:33:18;;;;;;;11.23;5.63;;;5.30;99.90;;;;;;4952649;28;20027;-93
2022/01/23 15:35:46;;;;;;;8.55;5.10;;;5.30;99.90;;;;;;4965243;28;20030;-91
2022/01/23 15:38:17;;;;;;;10.50;4.45;;;5.30;99.90;;;;;;4981109;28;20036;-90
2022/01/23 15:40:43;;;;;;;8.43;4.32;;;5.30;99.90;;;;;;4980881;28;20024;-90
2022/01/23 15:43:09;;;;;;;11.45;5.55;;;5.30;99.90;;;;;;4963940;28;20027;-90
2022/01/23 15:45:36;;;;;;;8.70;5.40;;;5.30;99.90;;;;;;4966544;28;20039;-92
2022/01/23 15:48:03;;;;;;;10.52;5.22;;;5.30;99.90;;;;;;4969185;28;20050;-90
2022/01/23 15:50:29;;;;;;;12.60;5.40;;;5.30;99.90;;;;;;4970594;28;20026;-89
2022/01/23 15:52:54;;;;;;;9.82;5.72;;;5.30;99.90;;;;;;5122529;23;20059;-89
2022/01/23 15:55:21;;;;;;;11.57;5.53;;;5.30;99.90;;;;;;4975872;28;20080;-86
2022/01/23 15:57:48;;;;;;;9.48;5.60;;;5.30;99.90;;;;;;4961942;29;20031;-87
2022/01/23 16:00:16;;;;;;;11.30;5.47;;;5.30;99.90;;;;;;4960503;29;20161;-87
2022/01/23 16:02:45;;;;;;;9.60;5.20;;;5.30;99.90;;;;;;4960791;29;20012;-89
2022/01/23 16:05:14;;;;;;;10.48;4.30;;;5.30;99.90;;;;;;4951440;29;20047;-89
2022/01/23 16:07:40;;;;;;;9.93;5.05;;;5.30;99.90;;;;;;4949456;29;20024;-90
2022/01/23 16:10:06;;;;;;;7.15;4.88;;;5.30;99.90;;;;;;4959622;29;20107;-88
2022/01/23 16:12:32;;;;;;;8.60;4.63;;;5.30;99.90;;;;;;4950442;29;20027;-86
2022/01/23 16:14:59;;;;;;;9.27;5.15;;;5.30;99.90;;;;;;4940670;29;20127;-88
2022/01/23 16:17:24;;;;;;;10.15;4.53;;;5.40;99.90;;;;;;4943460;29;20034;-88
2022/01/23 16:19:54;;;;;;;8.68;5.32;;;5.40;99.90;;;;;;4942931;29;20052;-90
2022/01/23 16:22:21;;;;;;;7.97;4.90;;;5.40;99.90;;;;;;4939742;29;20087;-90
2022/01/23 16:24:50;;;;;;;8.40;5.03;;;5.40;99.90;;;;;;4958028;28;20043;-90
2022/01/23 16:27:16;;;;;;;7.88;5.07;;;5.40;99.90;;;;;;4943742;29;20011;-88
2022/01/23 16:29:42;;;;;;;9.75;5.18;;;5.40;99.90;;;;;;4943625;29;20032;-89
2022/01/23 16:32:09;;;;;;;8.40;4.70;;;5.40;99.90;;;;;;4946803;29;20027;-89
2022/01/23 16:34:36;;;;;;;7.55;4.90;;;5.40;99.90;;;;;;4947447;29;20028;-88
2022/01/23 16:37:03;;;;;;;7.75;4.57;;;5.40;99.90;;;;;;4942890;29;20096;-90
2022/01/23 16:39:30;;;;;;;6.38;4.45;;;5.40;99.90;;;;;;4954849;29;20081;-89
2022/01/23 16:41:59;;;;;;;8.32;4.95;;;5.40;99.90;;;;;;4951258;29;20112;-89
2022/01/23 16:44:26;;;;;;;8.60;5.30;;;5.40;99.90;;;;;;4960239;28;20048;-89
2022/01/23 16:46:55;;;;;;;10.05;5.22;;;5.40;99.90;;;;;;4960736;29;20012;-92
2022/01/23 16:51:57;;;;;;;8.73;5.15;;;5.40;99.90;;;;;;4958172;23;20035;-93
2022/01/23 16:56:57;;;;;;;8.67;4.93;;;5.40;99.90;;;;;;4966533;28;20279;-90
2022/01/23 16:59:22;;;;;;;10.23;5.03;;;5.40;99.90;;;;;;4955906;29;20435;-90
2022/01/23 17:01:48;;;;;;;10.45;4.85;;;5.40;99.90;;;;;;4962240;28;20054;-89
2022/01/23 17:04:15;;;;;;;8.60;4.50;;;5.40;99.90;;;;;;4961913;29;20028;-89
2022/01/23 17:06:41;;;;;;;8.65;5.15;;;5.40;99.90;;;;;;4967091;28;20038;-89
2022/01/23 17:09:08;;;;;;;9.43;4.55;;;5.40;99.90;;;;;;4947601;29;20086;-91
2022/01/23 17:11:35;;;;;;;9.75;4.85;;;5.40;99.90;;;;;;4963828;29;20088;-89
2022/01/23 17:14:01;;;;;;;9.50;5.20;;;5.50;99.90;;;;;;4963331;28;20099;-87
2022/01/23 17:16:27;;;;;;;7.97;4.85;;;5.50;99.90;;;;;;4966275;28;20060;-88
2022/01/23 17:18:53;;;;;;;10.35;5.60;;;5.50;99.90;;;;;;4968948;28;20077;-89
2022/01/23 17:21:20;;;;;;;10.35;5.43;;;5.50;99.90;;;;;;4969416;29;20054;-89
2022/01/23 17:23:47;;;;;;;8.20;5.30;;;5.50;99.90;;;;;;4961123;29;20028;-89
2022/01/23 17:26:14;;;;;;;6.93;4.60;;;5.40;99.90;;;;;;4957254;29;20078;-88
2022/01/23 17:28:40;;;;;;;10.27;5.30;;;5.50;99.90;;;;;;4946290;29;20032;-88
2022/01/23 17:31:06;;;;;;;10.20;5.68;;;5.50;99.90;;;;;;4938715;29;20027;-89
2022/01/23 17:33:34;;;;;;;7.68;5.05;;;5.40;99.90;;;;;;4952211;28;20083;-88
2022/01/23 17:36:00;;;;;;;7.95;5.15;;;5.50;99.90;;;;;;4947831;29;20098;-91
2022/01/23 17:38:26;;;;;;;13.40;5.97;;;5.40;99.90;;;;;;4954980;29;20039;-87